createdAt,value
2022-09-18T00:00:59.028Z,97925.63
2022-09-18T00:06:19.896Z,97921.27
2022-09-18T00:11:28.605Z,97920.65
2022-09-18T00:16:39.525Z,97914.23
2022-09-18T00:21:49.098Z,97910.66
2022-09-18T00:26:56.016Z,97910.70
2022-09-18T00:32:01.580Z,97912.62
2022-09-18T00:37:08.890Z,97913.51
2022-09-18T00:42:24.070Z,97909.98
2022-09-18T00:47:34.034Z,97915.48
2022-09-18T00:52:52.913Z,97911.16
2022-09-18T00:58:09.987Z,97907.95
2022-09-18T01:03:17.187Z,97910.40
2022-09-18T01:08:41.807Z,97912.17
2022-09-18T01:14:01.339Z,97913.85
2022-09-18T01:19:27.356Z,97913.66
2022-09-18T01:24:47.063Z,97909.40
2022-09-18T01:30:02.070Z,97910.76
2022-09-18T01:35:41.526Z,97909.79
2022-09-18T01:41:05.086Z,97912.73
2022-09-18T01:46:20.151Z,97913.98
2022-09-18T01:51:33.009Z,97916.33
2022-09-18T01:56:45.408Z,97919.21
2022-09-18T02:01:56.023Z,97920.41
2022-09-18T02:07:14.569Z,97926.83
2022-09-18T02:12:25.576Z,97932.31
2022-09-18T02:17:37.262Z,97934.36
2022-09-18T02:22:48.934Z,97932.73
2022-09-18T02:27:59.997Z,97933.49
2022-09-18T02:33:26.168Z,97935.67
2022-09-18T02:44:21.045Z,97940.80
2022-09-18T02:49:38.078Z,97942.20
2022-09-18T02:54:50.714Z,97947.36
2022-09-18T03:00:03.348Z,97949.02
2022-09-18T03:05:11.651Z,97951.27
2022-09-18T03:10:18.870Z,97956.96
2022-09-18T03:15:27.376Z,97953.69
2022-09-18T03:20:34.654Z,97956.02
2022-09-18T03:25:43.540Z,97957.89
2022-09-18T03:30:53.496Z,97959.16
2022-09-18T03:36:00.462Z,97960.23
2022-09-18T03:41:07.548Z,97966.51
2022-09-18T03:46:15.704Z,97970.31
2022-09-18T03:51:23.108Z,97972.79
2022-09-18T03:56:31.541Z,97971.81
2022-09-18T04:01:38.477Z,97976.20
2022-09-18T04:06:43.833Z,97978.84
2022-09-18T04:11:53.649Z,97984.87
2022-09-18T04:17:00.756Z,97987.09
2022-09-18T04:22:08.061Z,97988.07
2022-09-18T04:27:13.622Z,97993.13
2022-09-18T04:32:20.771Z,97994.23
2022-09-18T04:37:30.791Z,97995.95
2022-09-18T04:42:37.855Z,98001.96
2022-09-18T04:47:46.891Z,98010.16
2022-09-18T04:52:53.715Z,98007.80
2022-09-18T04:58:00.575Z,98014.27
2022-09-18T05:03:09.850Z,98020.34
2022-09-18T05:08:17.498Z,98019.55
2022-09-18T05:13:24.729Z,98019.91
2022-09-18T05:18:35.136Z,98020.04
2022-09-18T05:23:42.236Z,98024.79
2022-09-18T05:28:51.631Z,98023.81
2022-09-18T05:33:58.917Z,98032.05
2022-09-18T05:39:06.635Z,98032.89
2022-09-18T05:44:12.059Z,98035.16
2022-09-18T05:49:19.160Z,98034.10
2022-09-18T05:54:26.422Z,98035.78
2022-09-18T05:59:33.437Z,98035.03
2022-09-18T06:04:39.108Z,98037.63
2022-09-18T06:09:46.104Z,98041.73
2022-09-18T06:14:53.100Z,98041.83
2022-09-18T06:20:00.359Z,98041.50
2022-09-18T06:25:09.361Z,98042.69
2022-09-18T06:30:17.176Z,98046.29
2022-09-18T06:35:24.981Z,98051.38
2022-09-18T06:40:33.330Z,98055.70
2022-09-18T06:45:40.242Z,98062.46
2022-09-18T06:53:30.414Z,98058.02
2022-09-18T06:58:37.559Z,98062.16
2022-09-18T07:03:42.909Z,98064.67
2022-09-18T07:08:52.917Z,98066.66
2022-09-18T07:13:59.832Z,98070.48
2022-09-18T07:19:08.976Z,98069.42
2022-09-18T07:24:18.324Z,98073.65
2022-09-18T07:29:26.955Z,98073.33
2022-09-18T07:34:33.893Z,98076.58
2022-09-18T07:39:39.620Z,98077.50
2022-09-18T07:44:46.721Z,98074.06
2022-09-18T07:49:53.822Z,98068.87
2022-09-18T07:55:00.960Z,98066.13
2022-09-18T08:00:11.375Z,98069.29
2022-09-18T08:05:18.851Z,98075.40
2022-09-18T08:10:26.606Z,98075.55
2022-09-18T08:15:34.313Z,98074.41
2022-09-18T08:20:41.931Z,98076.48
2022-09-18T08:25:49.953Z,98075.30
2022-09-18T08:30:58.279Z,98075.83
2022-09-18T08:36:05.816Z,98075.09
2022-09-18T08:41:25.515Z,98069.43
2022-09-18T08:46:39.371Z,98070.20
2022-09-18T08:51:53.505Z,98062.55
2022-09-18T08:57:06.526Z,98064.16
2022-09-18T09:02:46.654Z,98070.10
2022-09-18T09:08:17.514Z,98070.54
2022-09-18T09:13:50.856Z,98065.74
2022-09-18T09:19:02.375Z,98065.83
2022-09-18T09:24:22.222Z,98064.86
2022-09-18T09:29:32.786Z,98064.17
2022-09-18T09:34:45.713Z,98063.64
2022-09-18T09:39:58.962Z,98069.86
2022-09-18T09:45:15.889Z,98059.98
2022-09-18T09:50:38.532Z,98055.64
2022-09-18T09:55:56.765Z,98061.50
2022-09-18T10:01:11.932Z,98059.73
2022-09-18T10:06:35.945Z,98059.20
2022-09-18T10:11:48.711Z,98068.42
2022-09-18T10:16:57.959Z,98068.92
2022-09-18T10:22:08.801Z,98070.11
2022-09-18T10:27:17.518Z,98071.47
2022-09-18T10:32:39.294Z,98072.79
2022-09-18T10:37:46.189Z,98080.54
2022-09-18T10:42:56.144Z,98093.77
2022-09-18T10:48:15.936Z,98096.86
2022-09-18T10:53:32.216Z,98091.42
2022-09-18T10:58:39.620Z,98092.40
2022-09-18T11:03:50.105Z,98084.85
2022-09-18T11:09:00.714Z,98074.86
2022-09-18T11:14:17.985Z,98081.04
2022-09-18T11:19:28.645Z,98084.05
2022-09-18T11:24:37.579Z,98087.30
2022-09-18T11:29:44.694Z,98102.26
2022-09-18T11:34:55.044Z,98116.85
2022-09-18T11:40:26.585Z,98132.41
2022-09-18T11:45:54.041Z,98124.90
2022-09-18T11:51:04.630Z,98120.85
2022-09-18T11:56:16.203Z,98122.45
2022-09-18T12:01:32.189Z,98113.54
2022-09-18T12:06:52.470Z,98112.89
2022-09-18T12:12:05.429Z,98116.23
2022-09-18T12:17:19.359Z,98119.73
2022-09-18T12:22:30.635Z,98120.12
2022-09-18T12:27:42.470Z,98123.84
2022-09-18T12:33:07.556Z,98124.17
2022-09-18T12:38:28.514Z,98127.40
2022-09-18T12:43:56.905Z,98132.38
2022-09-18T12:49:32.808Z,98133.86
2022-09-18T12:54:53.416Z,98134.45
2022-09-18T13:00:07.397Z,98129.10
2022-09-18T13:05:19.757Z,98140.48
2022-09-18T13:10:31.192Z,98151.36
2022-09-18T13:15:45.070Z,98161.89
2022-09-18T13:20:54.314Z,98166.28
2022-09-18T13:26:03.210Z,98176.42
2022-09-18T13:36:28.587Z,98176.05
2022-09-18T13:41:47.506Z,98173.70
2022-09-18T13:46:57.442Z,98177.93
2022-09-18T13:52:29.980Z,98189.02
2022-09-18T13:57:37.886Z,98191.17
2022-09-18T14:02:44.777Z,98197.69
2022-09-18T14:08:36.216Z,98195.95
2022-09-18T14:13:52.045Z,98202.64
2022-09-18T14:19:05.685Z,98205.45
2022-09-18T14:24:56.584Z,98205.50
2022-09-18T14:30:15.401Z,98205.61
2022-09-18T14:35:29.775Z,98212.75
2022-09-18T14:40:44.093Z,98212.39
2022-09-18T14:45:51.488Z,98210.23
2022-09-18T14:51:17.811Z,98219.48
2022-09-18T14:56:29.630Z,98223.70
2022-09-18T15:01:39.015Z,98232.27
2022-09-18T15:06:51.139Z,98236.90
2022-09-18T15:12:02.597Z,98240.52
2022-09-18T15:17:20.685Z,98240.07
2022-09-18T15:22:28.745Z,98242.24
2022-09-18T15:27:36.223Z,98245.95
2022-09-18T15:32:47.724Z,98246.85
2022-09-18T15:38:02.544Z,98257.66
2022-09-18T15:43:41.306Z,98257.83
2022-09-18T15:48:49.395Z,98259.23
2022-09-18T15:54:07.775Z,98255.41
2022-09-18T15:59:26.417Z,98256.73
2022-09-18T16:04:35.143Z,98255.23
2022-09-18T16:09:45.320Z,98257.11
2022-09-18T16:15:03.143Z,98261.23
2022-09-18T16:20:36.611Z,98263.27
2022-09-18T16:25:45.443Z,98266.66
2022-09-18T16:30:56.079Z,98266.63
2022-09-18T16:36:08.271Z,98267.55
2022-09-18T16:41:15.197Z,98265.25
2022-09-18T16:46:24.084Z,98264.11
2022-09-18T16:51:33.697Z,98265.94
2022-09-18T16:56:44.840Z,98266.67
2022-09-18T17:02:03.289Z,98267.86
2022-09-18T17:07:11.472Z,98273.91
2022-09-18T17:12:18.695Z,98270.92
2022-09-18T17:17:25.879Z,98277.48
2022-09-18T17:22:33.886Z,98287.47
2022-09-18T17:27:43.716Z,98294.54
2022-09-18T17:32:51.625Z,98293.23
2022-09-18T17:38:01.062Z,98296.99
2022-09-18T17:43:08.326Z,98302.35
2022-09-18T17:48:16.286Z,98302.80
2022-09-18T17:53:23.889Z,98309.40
2022-09-18T17:58:32.446Z,98312.46
2022-09-18T18:03:39.880Z,98311.74
2022-09-18T18:08:47.445Z,98309.19
2022-09-18T18:13:58.044Z,98310.52
2022-09-18T18:19:12.401Z,98319.33
2022-09-18T18:24:20.906Z,98317.27
2022-09-18T18:29:28.304Z,98316.31
2022-09-18T18:34:39.155Z,98314.66
2022-09-18T18:39:47.190Z,98307.96
2022-09-18T18:44:55.514Z,98311.27
2022-09-18T18:50:03.867Z,98307.67
2022-09-18T18:55:12.198Z,98305.09
2022-09-18T19:00:27.661Z,98310.80
2022-09-18T19:05:35.489Z,98330.58
2022-09-18T19:10:43.625Z,98322.71
2022-09-18T19:15:55.562Z,98312.15
2022-09-18T19:21:03.929Z,98318.59
2022-09-18T19:26:16.452Z,98321.05
2022-09-18T19:31:27.141Z,98318.97
2022-09-18T19:36:40.297Z,98309.83
2022-09-18T19:41:52.704Z,98310.60
2022-09-18T19:47:03.719Z,98308.70
2022-09-18T19:52:18.119Z,98315.16
2022-09-18T19:57:27.725Z,98316.58
2022-09-18T20:02:34.912Z,98314.99
2022-09-18T20:07:42.528Z,98313.48
2022-09-18T20:12:52.728Z,98311.09
2022-09-18T20:18:03.813Z,98304.06
2022-09-18T20:23:14.299Z,98302.80
2022-09-18T20:28:24.269Z,98303.80
2022-09-18T20:33:31.827Z,98301.81
2022-09-18T20:38:41.038Z,98301.77
2022-09-18T20:43:53.418Z,98294.13
2022-09-18T20:49:03.533Z,98296.50
2022-09-18T20:54:11.799Z,98294.41
2022-09-18T20:59:21.190Z,98291.06
2022-09-18T21:04:30.854Z,98285.83
2022-09-18T21:09:37.671Z,98281.85
2022-09-18T21:14:44.806Z,98280.48
2022-09-18T21:19:50.484Z,98284.83
2022-09-18T21:25:03.308Z,98283.56
2022-09-18T21:30:15.560Z,98282.95
2022-09-18T21:35:23.727Z,98275.58
2022-09-18T21:40:32.031Z,98267.39
2022-09-18T21:45:40.618Z,98266.05
2022-09-18T21:50:51.789Z,98267.02
2022-09-18T21:56:12.202Z,98263.95
2022-09-18T22:01:28.410Z,98257.52
2022-09-18T22:06:39.813Z,98251.05
2022-09-18T22:11:48.042Z,98250.41
2022-09-18T22:16:57.682Z,98248.57
2022-09-18T22:22:05.191Z,98246.94
2022-09-18T22:27:15.269Z,98246.09
2022-09-18T22:32:21.128Z,98240.95
2022-09-18T22:43:15.870Z,98238.83
2022-09-18T22:48:22.738Z,98242.41
2022-09-18T22:53:32.503Z,98237.10
2022-09-18T22:58:42.956Z,98229.77
2022-09-18T23:03:51.232Z,98231.39
2022-09-18T23:18:56.241Z,98212.84
2022-09-18T23:24:08.910Z,98212.30
2022-09-18T23:29:20.676Z,98208.43
2022-09-18T23:34:30.618Z,98208.99
2022-09-18T23:39:37.645Z,98208.41
2022-09-18T23:44:45.781Z,98202.27
2022-09-18T23:49:55.942Z,98197.16
2022-09-18T23:55:08.567Z,98196.56
